Taylors Falls, Minnesota
Current Conditions -  °F | °C
As of 10:15 PM on Thursday 27 Nov 2014 (Local Time) from KOEO Reporting Station
Overcast Overcast  
Wind Chill:   Ceiling: 8000
Heat Index:   Visibility: 10mi
Dew Point:   Wind: 6mph
Humidity: 69%   Direction: 170°S
Pressure: 30.34"   Gusts: NA
Location:  45.4°N, 92.65°W
Report Text: KOEO 280415Z AUTO 17005KT 10SM SCT070 BKN080 OVC100 M13/M17 A3034 RMK AO2 T11261172
Loading
Personal Weather Stations






























Interactive Weather Map New forecast layout! Learn more

10-Day Weather Forecast

Advertisements
Track Severe Weather on mobile